PWSweather.com
Personal Weather Stations
Station Observations
JOE4SPEED
Jupiter, Fl, Jupiter, FL 33458

Jupiter, FlJupiter, FL 33458

Lat: 26.9373, Lon: -80.1101

Elevation: 12

Station Type: Davis VP 2

http://www.joe4speed.com/wxindex.php

High Low Average
Temperature 69.4°F20.8°F 62.6°F17.0°F 65.3°F18.5°F
Dew Point 66.0°F18.9°F 60.2°F15.7°F 62.6°F17.0°F
Winds 9.2 mph WNW14.8 mph WNW 0.7 mph 1.1 mph 4.5 mph 7.2 mph
Wind Gusts 17.0 mph27.4 mph 1.0 mph1.6 mph 7.3 mph11.7 mph
Humidity 93% 81% 91%
Pressure 30.20 in1022.70 in 30.00 in1015.90 in -
Precipitation 1.20 in30.50 in - -
Hour Temp Dew Point Humidity Winds Wind Gusts Pressure Precip Precip Rate Daily Precip Total
12:00 AM 67.5°F19.7°C 62.5°F16.9°C 84% 3.2 mph NW5.1 kmh NW 6.0 mph9.7 kmh 30.01 in1016.3 mb 0.00 in0.0 mm 0.00 in/hr0.0 mm/hr 0.00 in0.0 mm
12:10 AM 67.3°F19.6°C 62.3°F16.8°C 84% 2.9 mph NNW4.7 kmh NNW 4.0 mph6.4 kmh 30.02 in1016.6 mb 0.00 in0.0 mm 0.00 in/hr0.0 mm/hr 0.00 in0.0 mm
12:20 AM 67.2°F19.6°C 61.9°F16.6°C 83% 5.1 mph NW8.2 kmh NW 9.0 mph14.5 kmh 30.01 in1016.3 mb 0.00 in0.0 mm 0.00 in/hr0.0 mm/hr 0.00 in0.0 mm
12:30 AM 67.1°F19.5°C 61.8°F16.6°C 83% 5.1 mph NW8.2 kmh NW 7.0 mph11.3 kmh 30.01 in1016.3 mb 0.00 in0.0 mm 0.00 in/hr0.0 mm/hr 0.00 in0.0 mm
12:40 AM 67.1°F19.5°C 61.8°F16.6°C 83% 4.2 mph N6.8 kmh N 5.0 mph8.0 kmh 30.01 in1016.3 mb 0.00 in0.0 mm 0.00 in/hr0.0 mm/hr 0.00 in0.0 mm
12:50 AM 66.8°F19.3°C 60.8°F16.0°C 81% 6.2 mph NW10.0 kmh NW 8.0 mph12.9 kmh 30.01 in1016.3 mb 0.00 in0.0 mm 0.00 in/hr0.0 mm/hr 0.00 in0.0 mm
01:00 AM 66.7°F19.3°C 60.7°F15.9°C 81% 2.5 mph NW4.0 kmh NW 6.0 mph9.7 kmh 30.01 in1016.3 mb 0.00 in0.0 mm 0.00 in/hr0.0 mm/hr 0.00 in0.0 mm
01:10 AM 66.7°F19.3°C 60.7°F15.9°C 81% 4.6 mph NW7.4 kmh NW 6.0 mph9.7 kmh 30.01 in1016.3 mb 0.00 in0.0 mm 0.00 in/hr0.0 mm/hr 0.00 in0.0 mm
01:20 AM 66.8°F19.3°C 61.1°F16.2°C 82% 2.4 mph NNW3.9 kmh NNW 4.0 mph6.4 kmh 30.01 in1016.3 mb 0.00 in0.0 mm 0.00 in/hr0.0 mm/hr 0.00 in0.0 mm
01:30 AM 66.6°F19.2°C 61.2°F16.2°C 83% 2.7 mph NW4.3 kmh NW 4.0 mph6.4 kmh 30.01 in1016.3 mb 0.00 in0.0 mm 0.00 in/hr0.0 mm/hr 0.00 in0.0 mm
01:40 AM 66.2°F19.0°C 61.3°F16.3°C 84% 3.5 mph NW5.6 kmh NW 5.0 mph8.0 kmh 30.01 in1016.3 mb 0.00 in0.0 mm 0.00 in/hr0.0 mm/hr 0.00 in0.0 mm
01:50 AM 66.0°F18.9°C 61.0°F16.1°C 84% 4.3 mph NW6.9 kmh NW 5.0 mph8.0 kmh 30.01 in1016.3 mb 0.00 in0.0 mm 0.00 in/hr0.0 mm/hr 0.00 in0.0 mm
02:00 AM 65.9°F18.8°C 61.3°F16.3°C 85% 5.2 mph NW8.4 kmh NW 6.0 mph9.7 kmh 30.00 in1015.9 mb 0.00 in0.0 mm 0.00 in/hr0.0 mm/hr 0.00 in0.0 mm
02:10 AM 65.8°F18.8°C 61.2°F16.2°C 85% 4.9 mph NW7.9 kmh NW 6.0 mph9.7 kmh 30.01 in1016.3 mb 0.00 in0.0 mm 0.00 in/hr0.0 mm/hr 0.00 in0.0 mm
02:20 AM 65.7°F18.7°C 61.1°F16.2°C 85% 5.3 mph NW8.5 kmh NW 7.0 mph11.3 kmh 30.00 in1015.9 mb 0.00 in0.0 mm 0.00 in/hr0.0 mm/hr 0.00 in0.0 mm
02:30 AM 65.5°F18.6°C 60.9°F16.1°C 85% 2.3 mph NW3.7 kmh NW 4.0 mph6.4 kmh 30.00 in1015.9 mb 0.00 in0.0 mm 0.00 in/hr0.0 mm/hr 0.00 in0.0 mm
02:40 AM 65.4°F18.6°C 61.1°F16.2°C 86% 4.3 mph NW6.9 kmh NW 7.0 mph11.3 kmh 30.01 in1016.3 mb 0.00 in0.0 mm 0.00 in/hr0.0 mm/hr 0.00 in0.0 mm
02:50 AM 65.2°F18.4°C 60.9°F16.1°C 86% 5.3 mph NW8.5 kmh NW 8.0 mph12.9 kmh 30.01 in1016.3 mb 0.00 in0.0 mm 0.00 in/hr0.0 mm/hr 0.00 in0.0 mm
03:00 AM 64.9°F18.3°C 61.0°F16.1°C 87% 2.9 mph NW4.7 kmh NW 5.0 mph8.0 kmh 30.01 in1016.3 mb 0.02 in0.5 mm 0.02 in/hr0.5 mm/hr 0.02 in0.5 mm
03:10 AM 64.6°F18.1°C 61.0°F16.1°C 88% 3.9 mph NW6.3 kmh NW 5.0 mph8.0 kmh 30.00 in1015.9 mb 0.00 in0.0 mm 0.00 in/hr0.0 mm/hr 0.02 in0.5 mm
03:20 AM 64.4°F18.0°C 60.8°F16.0°C 88% 2.0 mph NW3.2 kmh NW 5.0 mph8.0 kmh 30.02 in1016.6 mb 0.01 in0.3 mm 0.06 in/hr1.5 mm/hr 0.03 in0.8 mm
03:30 AM 64.3°F17.9°C 60.7°F15.9°C 88% 2.0 mph NW3.2 kmh NW 5.0 mph8.0 kmh 30.01 in1016.3 mb 0.02 in0.5 mm 0.12 in/hr3.0 mm/hr 0.04 in1.0 mm
03:40 AM 64.2°F17.9°C 60.9°F16.1°C 89% 4.4 mph NW7.1 kmh NW 5.0 mph8.0 kmh 30.01 in1016.3 mb 0.02 in0.5 mm 0.12 in/hr3.0 mm/hr 0.06 in1.5 mm
03:50 AM 64.2°F17.9°C 60.8°F16.0°C 89% 1.5 mph NW2.4 kmh NW 4.0 mph6.4 kmh 30.01 in1016.3 mb 0.01 in0.3 mm 0.06 in/hr1.5 mm/hr 0.07 in1.8 mm
04:00 AM 64.1°F17.8°C 61.1°F16.2°C 90% 1.3 mph NW2.1 kmh NW 4.0 mph6.4 kmh 30.01 in1016.3 mb 0.05 in1.3 mm 0.06 in/hr1.5 mm/hr 0.12 in3.0 mm
04:10 AM 64.1°F17.8°C 61.1°F16.2°C 90% 0.7 mph NW1.1 kmh NW 1.0 mph1.6 kmh 30.01 in1016.3 mb 0.00 in0.0 mm 0.00 in/hr0.0 mm/hr 0.12 in3.0 mm
04:20 AM 64.1°F17.8°C 61.1°F16.2°C 90% 1.8 mph NW2.9 kmh NW 4.0 mph6.4 kmh 30.01 in1016.3 mb 0.00 in0.0 mm 0.00 in/hr0.0 mm/hr 0.12 in3.0 mm
04:30 AM 64.1°F17.8°C 61.1°F16.2°C 90% 1.6 mph NW2.6 kmh NW 4.0 mph6.4 kmh 30.01 in1016.3 mb 0.00 in0.0 mm 0.00 in/hr0.0 mm/hr 0.12 in3.0 mm
04:40 AM 64.1°F17.8°C 61.1°F16.2°C 90% 2.5 mph NW4.0 kmh NW 4.0 mph6.4 kmh 30.02 in1016.6 mb 0.00 in0.0 mm 0.00 in/hr0.0 mm/hr 0.12 in3.0 mm
04:50 AM 64.0°F17.8°C 61.0°F16.1°C 90% 1.6 mph NW2.6 kmh NW 4.0 mph6.4 kmh 30.02 in1016.6 mb 0.00 in0.0 mm 0.00 in/hr0.0 mm/hr 0.12 in3.0 mm
05:00 AM 64.0°F17.8°C 61.0°F16.1°C 90% 4.1 mph NW6.6 kmh NW 6.0 mph9.7 kmh 30.02 in1016.6 mb 0.00 in0.0 mm 0.00 in/hr0.0 mm/hr 0.12 in3.0 mm
05:10 AM 63.9°F17.7°C 60.9°F16.1°C 90% 1.5 mph N2.4 kmh N 2.0 mph3.2 kmh 30.02 in1016.6 mb 0.00 in0.0 mm 0.00 in/hr0.0 mm/hr 0.12 in3.0 mm
05:20 AM 63.8°F17.7°C 61.1°F16.2°C 91% 1.9 mph N3.1 kmh N 4.0 mph6.4 kmh 30.02 in1016.6 mb 0.00 in0.0 mm 0.00 in/hr0.0 mm/hr 0.12 in3.0 mm
05:30 AM 63.9°F17.7°C 61.2°F16.2°C 91% 3.8 mph NW6.1 kmh NW 5.0 mph8.0 kmh 30.02 in1016.6 mb 0.00 in0.0 mm 0.00 in/hr0.0 mm/hr 0.12 in3.0 mm
05:40 AM 63.9°F17.7°C 61.2°F16.2°C 91% 3.0 mph NW4.8 kmh NW 6.0 mph9.7 kmh 30.03 in1016.9 mb 0.00 in0.0 mm 0.00 in/hr0.0 mm/hr 0.12 in3.0 mm
05:50 AM 63.9°F17.7°C 61.2°F16.2°C 91% 1.1 mph NW1.8 kmh NW 4.0 mph6.4 kmh 30.04 in1017.3 mb 0.00 in0.0 mm 0.00 in/hr0.0 mm/hr 0.12 in3.0 mm
06:00 AM 63.9°F17.7°C 61.2°F16.2°C 91% 2.9 mph NW4.7 kmh NW 5.0 mph8.0 kmh 30.03 in1016.9 mb 0.00 in0.0 mm 0.00 in/hr0.0 mm/hr 0.12 in3.0 mm
06:10 AM 63.9°F17.7°C 61.3°F16.3°C 91% 0.7 mph NW1.1 kmh NW 2.0 mph3.2 kmh 30.04 in1017.3 mb 0.01 in0.3 mm 0.06 in/hr1.5 mm/hr 0.13 in3.3 mm
06:20 AM 64.0°F17.8°C 61.3°F16.3°C 91% 3.9 mph NW6.3 kmh NW 7.0 mph11.3 kmh 30.05 in1017.6 mb 0.00 in0.0 mm 0.00 in/hr0.0 mm/hr 0.13 in3.3 mm
06:30 AM 63.9°F17.7°C 61.2°F16.2°C 91% 5.1 mph NW8.2 kmh NW 8.0 mph12.9 kmh 30.05 in1017.6 mb 0.00 in0.0 mm 0.00 in/hr0.0 mm/hr 0.13 in3.3 mm
06:40 AM 63.6°F17.6°C 60.9°F16.1°C 91% 5.7 mph NW9.2 kmh NW 9.0 mph14.5 kmh 30.05 in1017.6 mb 0.01 in0.3 mm 0.06 in/hr1.5 mm/hr 0.14 in3.6 mm
06:50 AM 63.5°F17.5°C 60.8°F16.0°C 91% 2.0 mph NW3.2 kmh NW 4.0 mph6.4 kmh 30.05 in1017.6 mb 0.00 in0.0 mm 0.00 in/hr0.0 mm/hr 0.14 in3.6 mm
07:00 AM 63.6°F17.6°C 60.9°F16.1°C 91% 3.4 mph NW5.5 kmh NW 5.0 mph8.0 kmh 30.06 in1017.9 mb 0.01 in0.3 mm 0.01 in/hr0.3 mm/hr 0.15 in3.8 mm
07:10 AM 63.7°F17.6°C 61.3°F16.3°C 92% 2.0 mph NW3.2 kmh NW 2.0 mph3.2 kmh 30.07 in1018.3 mb 0.00 in0.0 mm 0.00 in/hr0.0 mm/hr 0.15 in3.8 mm
07:20 AM 63.8°F17.7°C 61.5°F16.4°C 92% 5.5 mph NW8.9 kmh NW 9.0 mph14.5 kmh 30.07 in1018.3 mb 0.00 in0.0 mm 0.00 in/hr0.0 mm/hr 0.15 in3.8 mm
07:30 AM 63.9°F17.7°C 61.5°F16.4°C 92% 3.4 mph NW5.5 kmh NW 6.0 mph9.7 kmh 30.07 in1018.3 mb 0.00 in0.0 mm 0.00 in/hr0.0 mm/hr 0.16 in4.1 mm
07:40 AM 64.1°F17.8°C 61.7°F16.5°C 92% 3.0 mph NW4.8 kmh NW 5.0 mph8.0 kmh 30.08 in1018.6 mb 0.03 in0.8 mm 0.18 in/hr4.6 mm/hr 0.18 in4.6 mm
07:50 AM 64.3°F17.9°C 62.0°F16.7°C 92% 5.1 mph NW8.2 kmh NW 7.0 mph11.3 kmh 30.08 in1018.6 mb 0.01 in0.3 mm 0.06 in/hr1.5 mm/hr 0.19 in4.8 mm
08:00 AM 64.7°F18.2°C 62.3°F16.8°C 92% 5.3 mph N8.5 kmh N 7.0 mph11.3 kmh 30.09 in1019.0 mb 0.01 in0.3 mm 0.01 in/hr0.3 mm/hr 0.20 in5.1 mm
08:10 AM 64.9°F18.3°C 62.5°F16.9°C 92% 6.4 mph WNW10.3 kmh WNW 9.0 mph14.5 kmh 30.09 in1019.0 mb 0.03 in0.8 mm 0.18 in/hr4.6 mm/hr 0.23 in5.8 mm
08:20 AM 64.9°F18.3°C 62.5°F16.9°C 92% 5.8 mph NW9.3 kmh NW 12.0 mph19.3 kmh 30.09 in1019.0 mb 0.04 in1.0 mm 0.24 in/hr6.1 mm/hr 0.27 in6.9 mm
08:30 AM 64.7°F18.2°C 62.3°F16.8°C 92% 6.0 mph NW9.7 kmh NW 8.0 mph12.9 kmh 30.10 in1019.3 mb 0.03 in0.8 mm 0.18 in/hr4.6 mm/hr 0.30 in7.6 mm
08:40 AM 64.4°F18.0°C 62.0°F16.7°C 92% 4.1 mph NW6.6 kmh NW 7.0 mph11.3 kmh 30.11 in1019.6 mb 0.04 in1.0 mm 0.24 in/hr6.1 mm/hr 0.33 in8.4 mm
08:50 AM 63.7°F17.6°C 61.3°F16.3°C 92% 5.4 mph NNW8.7 kmh NNW 7.0 mph11.3 kmh 30.12 in1020.0 mb 0.04 in1.0 mm 0.24 in/hr6.1 mm/hr 0.37 in9.4 mm
09:00 AM 63.2°F17.3°C 60.8°F16.0°C 92% 5.5 mph N8.9 kmh N 7.0 mph11.3 kmh 30.11 in1019.6 mb 0.03 in0.8 mm 0.04 in/hr1.0 mm/hr 0.39 in9.9 mm
09:10 AM 63.1°F17.3°C 60.7°F15.9°C 92% 4.8 mph NW7.7 kmh NW 7.0 mph11.3 kmh 30.12 in1020.0 mb 0.03 in0.8 mm 0.18 in/hr4.6 mm/hr 0.42 in10.7 mm
09:20 AM 62.6°F17.0°C 60.3°F15.7°C 92% 7.0 mph NW11.3 kmh NW 8.0 mph12.9 kmh 30.13 in1020.3 mb 0.03 in0.8 mm 0.18 in/hr4.6 mm/hr 0.45 in11.4 mm
09:30 AM 62.6°F17.0°C 60.2°F15.7°C 92% 4.2 mph NNW6.8 kmh NNW 7.0 mph11.3 kmh 30.12 in1020.0 mb 0.04 in1.0 mm 0.24 in/hr6.1 mm/hr 0.48 in12.2 mm
09:40 AM 62.7°F17.1°C 60.3°F15.7°C 92% 4.6 mph NW7.4 kmh NW 6.0 mph9.7 kmh 30.13 in1020.3 mb 0.03 in0.8 mm 0.18 in/hr4.6 mm/hr 0.50 in12.7 mm
09:50 AM 62.7°F17.1°C 60.3°F15.7°C 92% 4.0 mph NW6.4 kmh NW 8.0 mph12.9 kmh 30.14 in1020.7 mb 0.04 in1.0 mm 0.24 in/hr6.1 mm/hr 0.54 in13.7 mm
10:00 AM 62.7°F17.1°C 60.3°F15.7°C 92% 5.1 mph NW8.2 kmh NW 8.0 mph12.9 kmh 30.14 in1020.7 mb 0.01 in0.3 mm 0.01 in/hr0.3 mm/hr 0.55 in14.0 mm
10:10 AM 62.6°F17.0°C 60.2°F15.7°C 92% 3.9 mph NW6.3 kmh NW 5.0 mph8.0 kmh 30.14 in1020.7 mb 0.01 in0.3 mm 0.06 in/hr1.5 mm/hr 0.56 in14.2 mm
10:20 AM 62.9°F17.2°C 60.6°F15.9°C 92% 5.1 mph N8.2 kmh N 7.0 mph11.3 kmh 30.13 in1020.3 mb 0.03 in0.8 mm 0.18 in/hr4.6 mm/hr 0.59 in15.0 mm
10:30 AM 63.6°F17.6°C 61.5°F16.4°C 93% 4.6 mph NNW7.4 kmh NNW 7.0 mph11.3 kmh 30.14 in1020.7 mb 0.02 in0.5 mm 0.12 in/hr3.0 mm/hr 0.60 in15.2 mm
10:40 AM 63.9°F17.7°C 61.8°F16.6°C 93% 4.4 mph N7.1 kmh N 5.0 mph8.0 kmh 30.14 in1020.7 mb 0.02 in0.5 mm 0.12 in/hr3.0 mm/hr 0.62 in15.7 mm
10:50 AM 64.3°F17.9°C 62.2°F16.8°C 93% 5.0 mph N8.0 kmh N 8.0 mph12.9 kmh 30.14 in1020.7 mb 0.02 in0.5 mm 0.12 in/hr3.0 mm/hr 0.64 in16.3 mm
11:00 AM 64.6°F18.1°C 62.5°F16.9°C 93% 6.2 mph NW10.0 kmh NW 12.0 mph19.3 kmh 30.14 in1020.7 mb 0.04 in1.0 mm 0.05 in/hr1.3 mm/hr 0.67 in17.0 mm
11:10 AM 64.8°F18.2°C 62.7°F17.1°C 93% 6.7 mph NW10.8 kmh NW 10.0 mph16.1 kmh 30.14 in1020.7 mb 0.02 in0.5 mm 0.12 in/hr3.0 mm/hr 0.69 in17.5 mm
11:20 AM 64.5°F18.1°C 62.4°F16.9°C 93% 6.2 mph N10.0 kmh N 9.0 mph14.5 kmh 30.14 in1020.7 mb 0.10 in2.5 mm 0.60 in/hr15.2 mm/hr 0.79 in20.1 mm
11:30 AM 64.4°F18.0°C 62.3°F16.8°C 93% 7.8 mph NW12.6 kmh NW 10.0 mph16.1 kmh 30.14 in1020.7 mb 0.21 in5.3 mm 1.26 in/hr32.0 mm/hr 0.94 in23.9 mm
11:40 AM 64.5°F18.1°C 62.4°F16.9°C 93% 6.6 mph NW10.6 kmh NW 9.0 mph14.5 kmh 30.14 in1020.7 mb 0.02 in0.5 mm 0.12 in/hr3.0 mm/hr 0.95 in24.1 mm
11:50 AM 64.6°F18.1°C 62.5°F16.9°C 93% 6.5 mph NW10.5 kmh NW 10.0 mph16.1 kmh 30.15 in1021.0 mb 0.00 in0.0 mm 0.00 in/hr0.0 mm/hr 0.95 in24.1 mm
12:00 PM 64.5°F18.1°C 62.4°F16.9°C 93% 6.3 mph NW10.1 kmh NW 11.0 mph17.7 kmh 30.15 in1021.0 mb 0.01 in0.3 mm 0.01 in/hr0.3 mm/hr 0.96 in24.4 mm
12:10 PM 64.8°F18.2°C 62.7°F17.1°C 93% 5.8 mph NW9.3 kmh NW 12.0 mph19.3 kmh 30.14 in1020.7 mb 0.00 in0.0 mm 0.00 in/hr0.0 mm/hr 0.96 in24.4 mm
12:20 PM 64.9°F18.3°C 62.8°F17.1°C 93% 6.4 mph NNW10.3 kmh NNW 8.0 mph12.9 kmh 30.14 in1020.7 mb 0.01 in0.3 mm 0.06 in/hr1.5 mm/hr 0.97 in24.6 mm
12:30 PM 65.1°F18.4°C 63.0°F17.2°C 93% 5.1 mph NW8.2 kmh NW 9.0 mph14.5 kmh 30.14 in1020.7 mb 0.00 in0.0 mm 0.00 in/hr0.0 mm/hr 0.97 in24.6 mm
12:40 PM 65.1°F18.4°C 63.0°F17.2°C 93% 6.1 mph N9.8 kmh N 11.0 mph17.7 kmh 30.14 in1020.7 mb 0.00 in0.0 mm 0.00 in/hr0.0 mm/hr 0.97 in24.6 mm
12:50 PM 65.3°F18.5°C 63.2°F17.3°C 93% 6.6 mph NW10.6 kmh NW 12.0 mph19.3 kmh 30.13 in1020.3 mb 0.00 in0.0 mm 0.00 in/hr0.0 mm/hr 0.97 in24.6 mm
01:00 PM 65.4°F18.6°C 63.3°F17.4°C 93% 6.6 mph N10.6 kmh N 9.0 mph14.5 kmh 30.13 in1020.3 mb 0.00 in0.0 mm 0.00 in/hr0.0 mm/hr 0.97 in24.6 mm
01:10 PM 65.3°F18.5°C 63.2°F17.3°C 93% 7.2 mph N11.6 kmh N 13.0 mph20.9 kmh 30.13 in1020.3 mb 0.00 in0.0 mm 0.00 in/hr0.0 mm/hr 0.97 in24.6 mm
01:20 PM 65.1°F18.4°C 63.0°F17.2°C 93% 4.9 mph NW7.9 kmh NW 9.0 mph14.5 kmh 30.12 in1020.0 mb 0.00 in0.0 mm 0.00 in/hr0.0 mm/hr 0.97 in24.6 mm
01:30 PM 65.1°F18.4°C 63.0°F17.2°C 93% 5.5 mph N8.9 kmh N 8.0 mph12.9 kmh 30.12 in1020.0 mb 0.00 in0.0 mm 0.00 in/hr0.0 mm/hr 0.97 in24.6 mm
01:40 PM 65.3°F18.5°C 63.2°F17.3°C 93% 6.4 mph NW10.3 kmh NW 9.0 mph14.5 kmh 30.12 in1020.0 mb 0.00 in0.0 mm 0.00 in/hr0.0 mm/hr 0.97 in24.6 mm
01:50 PM 65.3°F18.5°C 63.2°F17.3°C 93% 4.6 mph N7.4 kmh N 7.0 mph11.3 kmh 30.12 in1020.0 mb 0.00 in0.0 mm 0.00 in/hr0.0 mm/hr 0.97 in24.6 mm
02:00 PM 65.3°F18.5°C 63.2°F17.3°C 93% 6.7 mph NW10.8 kmh NW 10.0 mph16.1 kmh 30.11 in1019.6 mb 0.00 in0.0 mm 0.00 in/hr0.0 mm/hr 0.97 in24.6 mm
02:10 PM 65.4°F18.6°C 63.3°F17.4°C 93% 5.7 mph WNW9.2 kmh WNW 12.0 mph19.3 kmh 30.12 in1020.0 mb 0.00 in0.0 mm 0.00 in/hr0.0 mm/hr 0.97 in24.6 mm
02:20 PM 65.2°F18.4°C 63.1°F17.3°C 93% 7.0 mph NNW11.3 kmh NNW 12.0 mph19.3 kmh 30.12 in1020.0 mb 0.00 in0.0 mm 0.00 in/hr0.0 mm/hr 0.97 in24.6 mm
02:30 PM 64.7°F18.2°C 62.4°F16.9°C 92% 9.2 mph WNW14.8 kmh WNW 12.0 mph19.3 kmh 30.12 in1020.0 mb 0.00 in0.0 mm 0.00 in/hr0.0 mm/hr 0.97 in24.6 mm
02:40 PM 64.0°F17.8°C 61.7°F16.5°C 92% 6.3 mph N10.1 kmh N 8.0 mph12.9 kmh 30.12 in1020.0 mb 0.00 in0.0 mm 0.00 in/hr0.0 mm/hr 0.97 in24.6 mm
02:50 PM 63.6°F17.6°C 61.2°F16.2°C 92% 6.7 mph N10.8 kmh N 6.0 mph9.7 kmh 30.13 in1020.3 mb 0.00 in0.0 mm 0.00 in/hr0.0 mm/hr 0.97 in24.6 mm
03:00 PM 63.4°F17.4°C 61.0°F16.1°C 92% 6.5 mph NW10.5 kmh NW 17.0 mph27.4 kmh 30.12 in1020.0 mb 0.00 in0.0 mm 0.00 in/hr0.0 mm/hr 0.97 in24.6 mm
03:10 PM 63.4°F17.4°C 61.0°F16.1°C 92% 7.5 mph N12.1 kmh N 12.0 mph19.3 kmh 30.12 in1020.0 mb 0.00 in0.0 mm 0.00 in/hr0.0 mm/hr 0.97 in24.6 mm
03:20 PM 63.6°F17.6°C 61.2°F16.2°C 92% 7.2 mph NW11.6 kmh NW 11.0 mph17.7 kmh 30.12 in1020.0 mb 0.00 in0.0 mm 0.00 in/hr0.0 mm/hr 0.97 in24.6 mm
03:30 PM 63.8°F17.7°C 61.7°F16.5°C 93% 5.2 mph N8.4 kmh N 12.0 mph19.3 kmh 30.12 in1020.0 mb 0.00 in0.0 mm 0.00 in/hr0.0 mm/hr 0.97 in24.6 mm
03:40 PM 64.3°F17.9°C 62.2°F16.8°C 93% 6.8 mph NNW10.9 kmh NNW 13.0 mph20.9 kmh 30.12 in1020.0 mb 0.00 in0.0 mm 0.00 in/hr0.0 mm/hr 0.97 in24.6 mm
03:50 PM 64.3°F17.9°C 62.2°F16.8°C 93% 6.2 mph N10.0 kmh N 10.0 mph16.1 kmh 30.11 in1019.6 mb 0.00 in0.0 mm 0.00 in/hr0.0 mm/hr 0.97 in24.6 mm
04:00 PM 64.5°F18.1°C 62.4°F16.9°C 93% 7.7 mph N12.4 kmh N 14.0 mph22.5 kmh 30.11 in1019.6 mb 0.00 in0.0 mm 0.00 in/hr0.0 mm/hr 0.97 in24.6 mm
04:10 PM 64.9°F18.3°C 62.8°F17.1°C 93% 7.5 mph NW12.1 kmh NW 14.0 mph22.5 kmh 30.11 in1019.6 mb 0.00 in0.0 mm 0.00 in/hr0.0 mm/hr 0.97 in24.6 mm
04:20 PM 64.8°F18.2°C 62.7°F17.1°C 93% 8.9 mph NW14.3 kmh NW 13.0 mph20.9 kmh 30.12 in1020.0 mb 0.00 in0.0 mm 0.00 in/hr0.0 mm/hr 0.97 in24.6 mm
04:30 PM 64.6°F18.1°C 62.5°F16.9°C 93% 6.5 mph WNW10.5 kmh WNW 8.0 mph12.9 kmh 30.12 in1020.0 mb 0.00 in0.0 mm 0.00 in/hr0.0 mm/hr 0.97 in24.6 mm
04:40 PM 64.5°F18.1°C 62.4°F16.9°C 93% 6.9 mph N11.1 kmh N 11.0 mph17.7 kmh 30.12 in1020.0 mb 0.00 in0.0 mm 0.00 in/hr0.0 mm/hr 0.97 in24.6 mm
04:50 PM 64.6°F18.1°C 62.6°F17.0°C 93% 7.1 mph N11.4 kmh N 9.0 mph14.5 kmh 30.13 in1020.3 mb 0.00 in0.0 mm 0.00 in/hr0.0 mm/hr 0.97 in24.6 mm
05:00 PM 64.8°F18.2°C 62.7°F17.1°C 93% 6.1 mph N9.8 kmh N 8.0 mph12.9 kmh 30.13 in1020.3 mb 0.00 in0.0 mm 0.00 in/hr0.0 mm/hr 0.97 in24.6 mm
05:10 PM 64.9°F18.3°C 62.9°F17.2°C 93% 6.8 mph NNW10.9 kmh NNW 7.0 mph11.3 kmh 30.12 in1020.0 mb 0.00 in0.0 mm 0.00 in/hr0.0 mm/hr 0.97 in24.6 mm
05:20 PM 65.1°F18.4°C 63.0°F17.2°C 93% 6.2 mph N10.0 kmh N 10.0 mph16.1 kmh 30.13 in1020.3 mb 0.00 in0.0 mm 0.00 in/hr0.0 mm/hr 0.97 in24.6 mm
05:30 PM 65.2°F18.4°C 63.1°F17.3°C 93% 7.4 mph N11.9 kmh N 9.0 mph14.5 kmh 30.13 in1020.3 mb 0.00 in0.0 mm 0.00 in/hr0.0 mm/hr 0.97 in24.6 mm
05:40 PM 65.1°F18.4°C 63.0°F17.2°C 93% 5.2 mph NNE8.4 kmh NNE 8.0 mph12.9 kmh 30.13 in1020.3 mb 0.01 in0.3 mm 0.06 in/hr1.5 mm/hr 0.98 in24.9 mm
05:50 PM 65.0°F18.3°C 62.9°F17.2°C 93% 7.1 mph NNW11.4 kmh NNW 10.0 mph16.1 kmh 30.14 in1020.7 mb 0.00 in0.0 mm 0.00 in/hr0.0 mm/hr 0.98 in24.9 mm
06:00 PM 64.9°F18.3°C 62.8°F17.1°C 93% 4.7 mph NNW7.6 kmh NNW 7.0 mph11.3 kmh 30.14 in1020.7 mb 0.00 in0.0 mm 0.00 in/hr0.0 mm/hr 0.98 in24.9 mm
06:10 PM 65.2°F18.4°C 63.1°F17.3°C 93% 4.2 mph N6.8 kmh N 7.0 mph11.3 kmh 30.13 in1020.3 mb 0.00 in0.0 mm 0.00 in/hr0.0 mm/hr 0.98 in24.9 mm
06:20 PM 65.5°F18.6°C 63.4°F17.4°C 93% 3.6 mph N5.8 kmh N 6.0 mph9.7 kmh 30.14 in1020.7 mb 0.01 in0.3 mm 0.06 in/hr1.5 mm/hr 0.99 in25.1 mm
06:30 PM 65.8°F18.8°C 63.7°F17.6°C 93% 3.3 mph N5.3 kmh N 5.0 mph8.0 kmh 30.14 in1020.7 mb 0.01 in0.3 mm 0.06 in/hr1.5 mm/hr 0.99 in25.1 mm
06:40 PM 66.3°F19.1°C 64.3°F17.9°C 93% 4.0 mph NNE6.4 kmh NNE 7.0 mph11.3 kmh 30.14 in1020.7 mb 0.00 in0.0 mm 0.00 in/hr0.0 mm/hr 0.99 in25.1 mm
06:50 PM 67.3°F19.6°C 65.2°F18.4°C 93% 3.9 mph NNE6.3 kmh NNE 5.0 mph8.0 kmh 30.14 in1020.7 mb 0.00 in0.0 mm 0.00 in/hr0.0 mm/hr 0.99 in25.1 mm
07:00 PM 67.4°F19.7°C 65.3°F18.5°C 93% 1.9 mph E3.1 kmh E 3.0 mph4.8 kmh 30.14 in1020.7 mb 0.00 in0.0 mm 0.00 in/hr0.0 mm/hr 0.99 in25.1 mm
07:10 PM 67.4°F19.7°C 65.3°F18.5°C 93% 2.6 mph NE4.2 kmh NE 6.0 mph9.7 kmh 30.14 in1020.7 mb 0.00 in0.0 mm 0.00 in/hr0.0 mm/hr 0.99 in25.1 mm
07:20 PM 67.6°F19.8°C 65.5°F18.6°C 93% 3.2 mph NNE5.1 kmh NNE 5.0 mph8.0 kmh 30.14 in1020.7 mb 0.00 in0.0 mm 0.00 in/hr0.0 mm/hr 0.99 in25.1 mm
07:30 PM 67.5°F19.7°C 65.4°F18.6°C 93% 3.1 mph ENE5.0 kmh ENE 4.0 mph6.4 kmh 30.15 in1021.0 mb 0.00 in0.0 mm 0.00 in/hr0.0 mm/hr 0.99 in25.1 mm
07:40 PM 67.5°F19.7°C 65.4°F18.6°C 93% 1.9 mph N3.1 kmh N 7.0 mph11.3 kmh 30.15 in1021.0 mb 0.00 in0.0 mm 0.00 in/hr0.0 mm/hr 0.99 in25.1 mm
07:50 PM 67.7°F19.8°C 65.6°F18.7°C 93% 3.3 mph NNE5.3 kmh NNE 5.0 mph8.0 kmh 30.16 in1021.3 mb 0.00 in0.0 mm 0.00 in/hr0.0 mm/hr 0.99 in25.1 mm
08:00 PM 67.9°F19.9°C 65.8°F18.8°C 93% 4.1 mph N6.6 kmh N 5.0 mph8.0 kmh 30.16 in1021.3 mb 0.00 in0.0 mm 0.00 in/hr0.0 mm/hr 0.99 in25.1 mm
08:10 PM 68.0°F20.0°C 65.9°F18.8°C 93% 2.3 mph NNE3.7 kmh NNE 8.0 mph12.9 kmh 30.17 in1021.7 mb 0.00 in0.0 mm 0.00 in/hr0.0 mm/hr 0.99 in25.1 mm
08:20 PM 68.0°F20.0°C 65.9°F18.8°C 93% 3.5 mph NE5.6 kmh NE 5.0 mph8.0 kmh 30.18 in1022.0 mb 0.00 in0.0 mm 0.00 in/hr0.0 mm/hr 1.00 in25.4 mm
08:30 PM 67.9°F19.9°C 65.5°F18.6°C 92% 2.8 mph E4.5 kmh E 10.0 mph16.1 kmh 30.18 in1022.0 mb 0.03 in0.8 mm 0.18 in/hr4.6 mm/hr 1.02 in25.9 mm
08:40 PM 67.9°F19.9°C 65.5°F18.6°C 92% 2.5 mph E4.0 kmh E 5.0 mph8.0 kmh 30.18 in1022.0 mb 0.02 in0.5 mm 0.12 in/hr3.0 mm/hr 1.03 in26.2 mm
08:50 PM 67.8°F19.9°C 65.4°F18.6°C 92% 2.8 mph N4.5 kmh N 6.0 mph9.7 kmh 30.18 in1022.0 mb 0.00 in0.0 mm 0.00 in/hr0.0 mm/hr 1.03 in26.2 mm
09:00 PM 67.8°F19.9°C 65.4°F18.6°C 92% 3.1 mph E5.0 kmh E 7.0 mph11.3 kmh 30.18 in1022.0 mb 0.01 in0.3 mm 0.01 in/hr0.3 mm/hr 1.04 in26.4 mm
09:10 PM 67.6°F19.8°C 65.2°F18.4°C 92% 4.7 mph ENE7.6 kmh ENE 6.0 mph9.7 kmh 30.18 in1022.0 mb 0.00 in0.0 mm 0.00 in/hr0.0 mm/hr 1.04 in26.4 mm
09:20 PM 67.6°F19.8°C 65.2°F18.4°C 92% 1.8 mph E2.9 kmh E 8.0 mph12.9 kmh 30.19 in1022.4 mb 0.00 in0.0 mm 0.00 in/hr0.0 mm/hr 1.04 in26.4 mm
09:30 PM 67.6°F19.8°C 65.2°F18.4°C 92% 3.5 mph SSE5.6 kmh SSE 7.0 mph11.3 kmh 30.19 in1022.4 mb 0.00 in0.0 mm 0.00 in/hr0.0 mm/hr 1.04 in26.4 mm
09:40 PM 67.7°F19.8°C 65.3°F18.5°C 92% 3.6 mph E5.8 kmh E 7.0 mph11.3 kmh 30.19 in1022.4 mb 0.00 in0.0 mm 0.00 in/hr0.0 mm/hr 1.04 in26.4 mm
09:50 PM 67.7°F19.8°C 65.3°F18.5°C 92% 4.3 mph E6.9 kmh E 8.0 mph12.9 kmh 30.19 in1022.4 mb 0.00 in0.0 mm 0.00 in/hr0.0 mm/hr 1.04 in26.4 mm
10:00 PM 67.7°F19.8°C 65.3°F18.5°C 92% 2.1 mph ESE3.4 kmh ESE 3.0 mph4.8 kmh 30.20 in1022.7 mb 0.00 in0.0 mm 0.00 in/hr0.0 mm/hr 1.04 in26.4 mm
10:10 PM 67.7°F19.8°C 65.3°F18.5°C 92% 4.6 mph E7.4 kmh E 7.0 mph11.3 kmh 30.20 in1022.7 mb 0.00 in0.0 mm 0.00 in/hr0.0 mm/hr 1.04 in26.4 mm
10:20 PM 67.8°F19.9°C 65.4°F18.6°C 92% 3.0 mph NE4.8 kmh NE 4.0 mph6.4 kmh 30.20 in1022.7 mb 0.00 in0.0 mm 0.00 in/hr0.0 mm/hr 1.04 in26.4 mm
10:30 PM 67.8°F19.9°C 65.4°F18.6°C 92% 4.3 mph SE6.9 kmh SE 7.0 mph11.3 kmh 30.19 in1022.4 mb 0.00 in0.0 mm 0.00 in/hr0.0 mm/hr 1.04 in26.4 mm
10:40 PM 67.7°F19.8°C 65.3°F18.5°C 92% 1.6 mph N2.6 kmh N 4.0 mph6.4 kmh 30.20 in1022.7 mb 0.00 in0.0 mm 0.00 in/hr0.0 mm/hr 1.04 in26.4 mm
10:50 PM 67.8°F19.9°C 65.1°F18.4°C 91% 7.1 mph E11.4 kmh E 12.0 mph19.3 kmh 30.19 in1022.4 mb 0.00 in0.0 mm 0.00 in/hr0.0 mm/hr 1.04 in26.4 mm
11:00 PM 68.1°F20.1°C 65.4°F18.6°C 91% 4.5 mph E7.2 kmh E 11.0 mph17.7 kmh 30.19 in1022.4 mb 0.00 in0.0 mm 0.00 in/hr0.0 mm/hr 1.04 in26.4 mm
11:10 PM 68.2°F20.1°C 65.2°F18.4°C 90% 4.2 mph E6.8 kmh E 6.0 mph9.7 kmh 30.19 in1022.4 mb 0.00 in0.0 mm 0.00 in/hr0.0 mm/hr 1.04 in26.4 mm
11:20 PM 68.5°F20.3°C 65.4°F18.6°C 90% 4.0 mph SSE6.4 kmh SSE 6.0 mph9.7 kmh 30.19 in1022.4 mb 0.00 in0.0 mm 0.00 in/hr0.0 mm/hr 1.04 in26.4 mm
11:30 PM 68.7°F20.4°C 65.7°F18.7°C 90% 4.0 mph N6.4 kmh N 5.0 mph8.0 kmh 30.19 in1022.4 mb 0.00 in0.0 mm 0.00 in/hr0.0 mm/hr 1.04 in26.4 mm
11:40 PM 69.1°F20.6°C 65.7°F18.7°C 89% 6.7 mph E10.8 kmh E 13.0 mph20.9 kmh 30.18 in1022.0 mb 0.00 in0.0 mm 0.00 in/hr0.0 mm/hr 1.04 in26.4 mm
11:50 PM 69.4°F20.8°C 66.0°F18.9°C 89% 4.8 mph SE7.7 kmh SE 7.0 mph11.3 kmh 30.18 in1022.0 mb 0.00 in0.0 mm 0.00 in/hr0.0 mm/hr 1.04 in26.4 mm